Time;durP1;ratioP1;P1;durP2;ratioP2;P2;SDS_P1;SDS_P2;PMS_P1;PMS_P2;Temp;Humidity;BMP_temperature;BMP_pressure;BME280_temperature;BME280_humidity;BME280_pressure;Samples;Min_cycle;Max_cycle;Signal;HPM_P1;HPM_P2
2022/09/20 00:01:38;;;;;;;4.73;1.53;;;;;;;;;;5115167;27;20817;-72
2022/09/20 00:04:07;;;;;;;3.77;1.33;;;;;;;;;;5114450;27;20451;-72
2022/09/20 00:06:34;;;;;;;4.20;1.70;;;;;;;;;;5114537;27;20455;-71
2022/09/20 00:09:02;;;;;;;4.83;1.50;;;;;;;;;;5125231;27;20450;-71
2022/09/20 00:11:34;;;;;;;7.20;1.10;;;;;;;;;;5120885;27;20469;-72
2022/09/20 00:14:02;;;;;;;10.10;2.60;;;;;;;;;;5134637;27;20453;-72
2022/09/20 00:16:30;;;;;;;4.80;1.80;;;;;;;;;;5124229;27;20462;-72
2022/09/20 00:18:58;;;;;;;10.73;1.87;;;;;;;;;;5121938;27;20454;-72
2022/09/20 00:21:27;;;;;;;5.03;1.60;;;;;;;;;;5115071;27;20486;-75
2022/09/20 00:23:56;;;;;;;5.53;1.50;;;;;;;;;;5121559;27;20569;-72
2022/09/20 00:26:23;;;;;;;3.93;1.30;;;;;;;;;;5115884;27;20507;-72
2022/09/20 00:28:51;;;;;;;7.43;1.30;;;;;;;;;;5130108;27;20460;-72
2022/09/20 00:31:19;;;;;;;3.83;1.53;;;;;;;;;;5127074;27;20493;-72
2022/09/20 00:36:32;;;;;;;3.63;1.30;;;;;;;;;;5121594;27;20477;-72
2022/09/20 00:39:00;;;;;;;4.40;1.13;;;;;;;;;;5122224;27;20455;-72
2022/09/20 00:41:27;;;;;;;5.90;1.80;;;;;;;;;;5132243;27;20491;-72
2022/09/20 00:43:55;;;;;;;3.70;1.30;;;;;;;;;;5136843;27;21388;-73
2022/09/20 00:46:24;;;;;;;2.43;1.30;;;;;;;;;;5135295;27;20507;-72
2022/09/20 00:48:54;;;;;;;4.13;1.77;;;;;;;;;;5131740;27;20692;-72
2022/09/20 00:51:24;;;;;;;4.07;1.53;;;;;;;;;;5128569;27;20469;-72
2022/09/20 00:53:54;;;;;;;8.10;1.60;;;;;;;;;;5128880;27;20531;-72
2022/09/20 00:56:24;;;;;;;3.80;1.40;;;;;;;;;;5124999;27;20502;-72
2022/09/20 00:58:52;;;;;;;9.60;2.50;;;;;;;;;;5132949;27;21069;-72
2022/09/20 01:01:24;;;;;;;8.97;1.80;;;;;;;;;;5129084;27;20486;-72
2022/09/20 01:03:55;;;;;;;8.17;1.57;;;;;;;;;;5126528;27;20457;-72
2022/09/20 01:06:23;;;;;;;4.43;1.63;;;;;;;;;;5129167;27;20928;-72
2022/09/20 01:08:51;;;;;;;8.27;2.10;;;;;;;;;;5118728;27;20442;-72
2022/09/20 01:11:19;;;;;;;6.03;1.53;;;;;;;;;;5124368;27;20925;-72
2022/09/20 01:13:46;;;;;;;7.23;1.63;;;;;;;;;;5126329;27;20467;-72
2022/09/20 01:16:15;;;;;;;3.23;1.40;;;;;;;;;;5120870;27;20469;-72
2022/09/20 01:18:44;;;;;;;7.83;1.77;;;;;;;;;;5136507;27;20492;-73
2022/09/20 01:21:11;;;;;;;3.67;1.10;;;;;;;;;;5128778;27;20569;-72
2022/09/20 01:23:46;;;;;;;3.77;1.70;;;;;;;;;;5127124;27;20463;-76
2022/09/20 01:26:27;;;;;;;3.83;1.43;;;;;;;;;;5126708;27;20453;-73
2022/09/20 01:29:05;;;;;;;2.93;1.47;;;;;;;;;;5130370;27;20464;-72
2022/09/20 01:31:37;;;;;;;7.63;2.50;;;;;;;;;;5123339;27;20549;-73
2022/09/20 01:34:10;;;;;;;7.57;2.20;;;;;;;;;;5136116;27;20453;-72
2022/09/20 01:36:39;;;;;;;3.20;1.80;;;;;;;;;;5138051;27;20445;-72
2022/09/20 01:39:11;;;;;;;11.83;2.00;;;;;;;;;;5118697;27;20549;-72
2022/09/20 01:41:40;;;;;;;4.73;1.50;;;;;;;;;;5128785;27;20481;-73
2022/09/20 01:44:12;;;;;;;10.43;1.90;;;;;;;;;;5132291;27;20485;-73
2022/09/20 01:46:41;;;;;;;11.07;1.60;;;;;;;;;;5122622;27;20500;-73
2022/09/20 01:49:20;;;;;;;5.30;1.40;;;;;;;;;;5135808;27;20551;-73
2022/09/20 01:52:14;;;;;;;7.80;1.67;;;;;;;;;;5125102;27;20445;-73
2022/09/20 01:54:51;;;;;;;5.20;1.70;;;;;;;;;;5115756;27;20467;-73
2022/09/20 01:57:30;;;;;;;5.80;1.80;;;;;;;;;;5125827;27;20492;-73
2022/09/20 02:00:12;;;;;;;5.97;1.40;;;;;;;;;;5135430;27;20482;-72
2022/09/20 02:03:04;;;;;;;3.80;1.40;;;;;;;;;;5130327;27;21043;-74
2022/09/20 02:05:42;;;;;;;10.97;2.03;;;;;;;;;;5115151;27;20496;-73
2022/09/20 02:08:18;;;;;;;7.03;2.23;;;;;;;;;;5125115;27;20461;-73
2022/09/20 02:10:59;;;;;;;6.27;1.67;;;;;;;;;;5129809;27;20538;-72
2022/09/20 02:13:30;;;;;;;4.17;1.37;;;;;;;;;;5133283;27;20866;-72
2022/09/20 02:16:11;;;;;;;4.10;1.33;;;;;;;;;;5124572;27;20434;-72
2022/09/20 02:18:48;;;;;;;7.30;1.80;;;;;;;;;;5121841;27;20501;-72
2022/09/20 02:21:20;;;;;;;4.23;1.13;;;;;;;;;;5119087;27;21043;-72
2022/09/20 02:23:51;;;;;;;10.30;1.87;;;;;;;;;;5128297;27;20442;-72
2022/09/20 02:26:25;;;;;;;4.60;1.70;;;;;;;;;;5117363;27;20447;-72
2022/09/20 02:28:59;;;;;;;8.67;1.63;;;;;;;;;;5127589;27;20450;-72
2022/09/20 02:31:33;;;;;;;6.63;2.30;;;;;;;;;;5128173;27;20882;-72
2022/09/20 02:34:24;;;;;;;8.10;1.70;;;;;;;;;;5129781;27;20857;-72
2022/09/20 02:36:59;;;;;;;3.30;1.23;;;;;;;;;;5121967;27;20531;-72
2022/09/20 02:39:31;;;;;;;9.93;1.70;;;;;;;;;;5115751;27;20449;-72
2022/09/20 02:42:03;;;;;;;7.50;1.97;;;;;;;;;;5127899;27;20592;-72
2022/09/20 02:44:45;;;;;;;8.13;2.67;;;;;;;;;;5130756;27;20457;-72
2022/09/20 02:47:17;;;;;;;6.47;1.67;;;;;;;;;;5122470;27;20469;-72
2022/09/20 02:49:50;;;;;;;8.00;2.00;;;;;;;;;;5115675;27;20455;-72
2022/09/20 02:52:23;;;;;;;6.20;2.40;;;;;;;;;;5116657;27;20450;-73
2022/09/20 02:54:55;;;;;;;4.00;1.90;;;;;;;;;;5115215;27;20960;-72
2022/09/20 02:57:25;;;;;;;5.37;1.73;;;;;;;;;;5114907;27;20443;-72
2022/09/20 02:59:54;;;;;;;6.93;3.23;;;;;;;;;;5125495;27;20488;-72
2022/09/20 03:02:26;;;;;;;3.60;1.93;;;;;;;;;;5119411;27;20538;-72
2022/09/20 03:05:09;;;;;;;6.57;1.50;;;;;;;;;;5120843;27;20451;-72
2022/09/20 03:07:43;;;;;;;4.63;1.70;;;;;;;;;;5134443;27;20916;-72
2022/09/20 03:10:15;;;;;;;7.07;2.17;;;;;;;;;;5134886;27;20924;-72
2022/09/20 03:12:46;;;;;;;8.40;2.37;;;;;;;;;;5132216;27;21141;-72
2022/09/20 03:15:19;;;;;;;4.23;2.20;;;;;;;;;;5130040;27;20872;-72
2022/09/20 03:17:50;;;;;;;7.90;1.50;;;;;;;;;;5123552;27;20511;-72
2022/09/20 03:20:24;;;;;;;11.93;2.27;;;;;;;;;;5118097;27;20475;-72
2022/09/20 03:22:55;;;;;;;5.73;2.00;;;;;;;;;;5146578;27;20448;-72
2022/09/20 03:25:31;;;;;;;5.63;1.87;;;;;;;;;;5136974;27;20477;-72
2022/09/20 03:28:06;;;;;;;8.93;3.50;;;;;;;;;;5135023;27;20448;-72
2022/09/20 03:30:44;;;;;;;5.70;2.20;;;;;;;;;;5135366;27;20605;-72
2022/09/20 03:33:16;;;;;;;3.80;2.30;;;;;;;;;;5128481;27;20450;-73
2022/09/20 03:35:52;;;;;;;6.83;2.30;;;;;;;;;;5126753;27;20441;-72
2022/09/20 03:38:28;;;;;;;9.33;2.17;;;;;;;;;;5122406;27;20450;-73
2022/09/20 03:41:00;;;;;;;4.10;2.10;;;;;;;;;;5117955;27;20527;-72
2022/09/20 03:43:36;;;;;;;3.87;2.30;;;;;;;;;;5129213;27;20461;-72
2022/09/20 03:46:09;;;;;;;3.67;1.93;;;;;;;;;;5128198;27;20583;-72
2022/09/20 03:48:46;;;;;;;13.80;3.43;;;;;;;;;;5131123;27;20526;-72
2022/09/20 03:51:16;;;;;;;6.23;1.93;;;;;;;;;;5119871;27;20466;-72
2022/09/20 03:54:01;;;;;;;5.63;2.23;;;;;;;;;;5119459;27;20438;-72
2022/09/20 03:56:47;;;;;;;9.33;2.83;;;;;;;;;;5126303;27;20451;-73
2022/09/20 03:59:29;;;;;;;8.90;2.50;;;;;;;;;;5131191;27;20446;-72
2022/09/20 04:02:08;;;;;;;10.63;2.33;;;;;;;;;;5126685;27;20527;-72
2022/09/20 04:04:41;;;;;;;7.63;3.43;;;;;;;;;;5117109;27;20769;-72
2022/09/20 04:07:15;;;;;;;3.40;2.30;;;;;;;;;;5120276;27;20477;-73
2022/09/20 04:10:01;;;;;;;9.30;2.77;;;;;;;;;;5122886;27;20449;-72
2022/09/20 04:12:31;;;;;;;3.47;2.33;;;;;;;;;;5119660;27;20742;-72
2022/09/20 04:15:05;;;;;;;7.13;2.47;;;;;;;;;;5132274;27;20795;-72
2022/09/20 04:17:39;;;;;;;5.43;2.10;;;;;;;;;;5127860;27;20435;-72
2022/09/20 04:20:13;;;;;;;7.80;2.90;;;;;;;;;;5137186;27;20500;-72
2022/09/20 04:22:42;;;;;;;6.17;2.30;;;;;;;;;;5122823;27;20789;-72
2022/09/20 04:25:13;;;;;;;8.63;2.47;;;;;;;;;;5137785;27;20975;-72
2022/09/20 04:27:44;;;;;;;5.03;2.30;;;;;;;;;;5123856;27;20473;-72
2022/09/20 04:30:21;;;;;;;11.70;2.93;;;;;;;;;;5120749;27;20522;-72
2022/09/20 04:32:52;;;;;;;4.30;2.53;;;;;;;;;;5136947;27;20521;-72
2022/09/20 04:38:12;;;;;;;9.40;6.30;;;;;;;;;;5122933;27;20530;-72
2022/09/20 04:40:51;;;;;;;13.07;5.00;;;;;;;;;;5117762;27;20488;-72
2022/09/20 04:43:49;;;;;;;7.50;4.23;;;;;;;;;;5127651;27;20943;-72
2022/09/20 04:46:35;;;;;;;10.53;4.40;;;;;;;;;;5131438;27;20537;-73
2022/09/20 04:49:14;;;;;;;9.40;3.60;;;;;;;;;;5122573;27;20443;-72
2022/09/20 04:52:11;;;;;;;9.67;4.37;;;;;;;;;;5124335;27;20449;-72
2022/09/20 04:54:53;;;;;;;16.70;4.77;;;;;;;;;;5115199;27;20519;-72
2022/09/20 04:57:38;;;;;;;10.03;3.87;;;;;;;;;;5094124;27;20533;-72
2022/09/20 05:00:07;;;;;;;10.03;4.30;;;;;;;;;;5116186;27;20482;-73
2022/09/20 05:02:58;;;;;;;6.43;4.57;;;;;;;;;;5131968;27;20446;-72
2022/09/20 05:05:54;;;;;;;9.63;4.37;;;;;;;;;;5137132;27;20764;-72
2022/09/20 05:08:30;;;;;;;9.03;4.60;;;;;;;;;;5134496;27;20453;-72
2022/09/20 05:11:16;;;;;;;9.00;4.30;;;;;;;;;;5136264;27;20454;-72
2022/09/20 05:13:54;;;;;;;13.90;4.87;;;;;;;;;;5118027;27;20504;-72
2022/09/20 05:16:25;;;;;;;9.27;5.40;;;;;;;;;;5133655;27;20481;-72
2022/09/20 05:19:08;;;;;;;9.53;5.00;;;;;;;;;;5134165;27;20507;-72
2022/09/20 05:21:48;;;;;;;7.97;3.73;;;;;;;;;;5133724;27;20592;-72
2022/09/20 05:24:28;;;;;;;6.93;4.80;;;;;;;;;;5113034;27;20514;-72
2022/09/20 05:27:12;;;;;;;9.00;4.13;;;;;;;;;;5111379;27;20459;-72
2022/09/20 05:29:47;;;;;;;8.90;4.77;;;;;;;;;;5123730;27;20471;-72
2022/09/20 05:32:20;;;;;;;12.60;5.40;;;;;;;;;;5133774;27;20510;-72
2022/09/20 05:34:54;;;;;;;9.67;5.13;;;;;;;;;;5111120;27;20759;-72
2022/09/20 05:37:28;;;;;;;9.23;5.60;;;;;;;;;;5112985;27;20458;-73
2022/09/20 05:39:59;;;;;;;8.90;5.63;;;;;;;;;;5124502;27;20449;-72
2022/09/20 05:42:42;;;;;;;9.63;5.57;;;;;;;;;;5128587;27;20473;-72
2022/09/20 05:45:18;;;;;;;9.80;5.70;;;;;;;;;;5116532;27;20455;-73
2022/09/20 05:47:52;;;;;;;9.63;6.23;;;;;;;;;;5131812;27;20489;-72
2022/09/20 05:50:37;;;;;;;12.60;5.00;;;;;;;;;;5122124;27;20451;-72
2022/09/20 05:53:11;;;;;;;14.03;6.80;;;;;;;;;;5112415;27;20447;-72
2022/09/20 05:55:52;;;;;;;12.57;6.47;;;;;;;;;;5110382;27;20455;-72
2022/09/20 05:58:33;;;;;;;9.23;6.20;;;;;;;;;;5114909;27;20453;-71
2022/09/20 06:01:05;;;;;;;10.50;5.70;;;;;;;;;;5109928;27;20486;-72
2022/09/20 06:03:43;;;;;;;11.80;5.10;;;;;;;;;;5119720;27;20523;-72
2022/09/20 06:06:14;;;;;;;8.90;5.87;;;;;;;;;;5121810;27;20917;-72
2022/09/20 06:09:07;;;;;;;10.77;7.17;;;;;;;;;;5120857;27;20552;-71
2022/09/20 06:11:53;;;;;;;7.60;5.03;;;;;;;;;;5123787;27;20928;-72
2022/09/20 06:14:33;;;;;;;9.93;4.83;;;;;;;;;;5111517;27;20479;-72
2022/09/20 06:17:13;;;;;;;10.70;5.60;;;;;;;;;;5121343;27;20484;-72
2022/09/20 06:19:47;;;;;;;13.67;6.87;;;;;;;;;;5120555;27;20458;-72
2022/09/20 06:22:16;;;;;;;23.53;8.77;;;;;;;;;;5126670;27;20460;-72
2022/09/20 06:24:45;;;;;;;15.40;5.43;;;;;;;;;;5127041;27;20526;-72
2022/09/20 06:27:14;;;;;;;11.40;4.70;;;;;;;;;;5114775;27;20473;-72
2022/09/20 06:29:44;;;;;;;9.67;5.67;;;;;;;;;;5124663;27;20457;-72
2022/09/20 06:32:16;;;;;;;9.50;5.30;;;;;;;;;;5133868;27;20869;-72
2022/09/20 06:34:43;;;;;;;7.17;4.87;;;;;;;;;;5127329;27;21030;-72
2022/09/20 06:42:59;;;;;;;7.07;3.70;;;;;;;;;;5135430;27;20518;-72
2022/09/20 06:45:26;;;;;;;8.43;5.63;;;;;;;;;;5123964;27;20463;-71
2022/09/20 06:47:54;;;;;;;6.17;3.03;;;;;;;;;;5121454;28;20790;-71
2022/09/20 06:50:21;;;;;;;6.13;3.23;;;;;;;;;;5131016;27;20506;-73
2022/09/20 06:52:48;;;;;;;11.77;3.30;;;;;;;;;;5125395;27;20439;-71
2022/09/20 06:55:18;;;;;;;7.10;3.77;;;;;;;;;;5120917;27;20470;-71
2022/09/20 06:57:45;;;;;;;7.53;4.27;;;;;;;;;;5116206;27;20533;-71
2022/09/20 07:00:14;;;;;;;5.30;3.00;;;;;;;;;;5116437;27;20522;-71
2022/09/20 07:02:42;;;;;;;9.60;3.37;;;;;;;;;;5115560;27;20458;-72
2022/09/20 07:05:13;;;;;;;6.53;3.23;;;;;;;;;;5112485;27;20471;-71
2022/09/20 07:07:42;;;;;;;5.33;2.90;;;;;;;;;;5116824;27;20458;-73
2022/09/20 07:10:10;;;;;;;5.83;2.57;;;;;;;;;;5112969;27;20461;-73
2022/09/20 07:12:38;;;;;;;7.60;3.17;;;;;;;;;;5113312;27;20734;-72
2022/09/20 07:15:06;;;;;;;10.20;3.63;;;;;;;;;;5134862;27;20454;-72
2022/09/20 07:17:33;;;;;;;4.23;2.53;;;;;;;;;;5133731;27;20448;-73
2022/09/20 07:20:00;;;;;;;5.97;3.20;;;;;;;;;;5134839;27;20526;-72
2022/09/20 07:22:31;;;;;;;7.37;2.90;;;;;;;;;;5134337;27;20450;-72
2022/09/20 07:25:01;;;;;;;4.00;2.03;;;;;;;;;;5127691;27;20486;-72
2022/09/20 07:27:29;;;;;;;10.10;2.70;;;;;;;;;;5113715;27;20451;-72
2022/09/20 07:29:57;;;;;;;7.70;2.60;;;;;;;;;;5114698;27;20541;-72
2022/09/20 07:32:29;;;;;;;7.10;4.63;;;;;;;;;;5112843;27;20457;-71
2022/09/20 07:35:00;;;;;;;6.13;3.73;;;;;;;;;;5112653;27;20474;-70
2022/09/20 07:37:28;;;;;;;7.97;2.40;;;;;;;;;;5112775;27;20447;-71
2022/09/20 07:39:56;;;;;;;5.00;2.60;;;;;;;;;;5114213;27;20454;-71
2022/09/20 07:42:23;;;;;;;4.77;2.37;;;;;;;;;;5131935;27;20504;-71
2022/09/20 07:44:52;;;;;;;5.17;2.13;;;;;;;;;;5132727;27;20458;-71
2022/09/20 07:47:20;;;;;;;8.40;3.10;;;;;;;;;;5125864;27;20531;-70
2022/09/20 07:49:47;;;;;;;4.97;2.53;;;;;;;;;;5111828;27;20469;-71
2022/09/20 07:52:16;;;;;;;9.70;2.70;;;;;;;;;;5122315;27;20462;-71
2022/09/20 07:54:44;;;;;;;7.30;2.50;;;;;;;;;;5132637;27;20449;-71
2022/09/20 07:57:16;;;;;;;4.67;2.17;;;;;;;;;;5132678;27;20579;-70
2022/09/20 07:59:45;;;;;;;6.87;2.80;;;;;;;;;;5131729;27;20477;-71
2022/09/20 08:02:14;;;;;;;7.57;3.37;;;;;;;;;;5132541;27;20626;-72
2022/09/20 08:04:42;;;;;;;4.83;2.43;;;;;;;;;;5119924;27;20470;-70
2022/09/20 08:07:12;;;;;;;6.50;1.83;;;;;;;;;;5122872;27;20451;-72
2022/09/20 08:09:40;;;;;;;6.13;3.40;;;;;;;;;;5112974;27;20474;-72
2022/09/20 08:12:09;;;;;;;8.60;2.43;;;;;;;;;;5141292;27;20614;-71
2022/09/20 08:14:37;;;;;;;4.80;1.97;;;;;;;;;;5111808;27;20557;-71
2022/09/20 08:17:04;;;;;;;7.40;2.30;;;;;;;;;;5122712;27;21082;-70
2022/09/20 08:19:34;;;;;;;6.60;1.40;;;;;;;;;;5121058;27;20466;-71
2022/09/20 08:22:02;;;;;;;2.90;1.47;;;;;;;;;;5126184;27;20487;-71
2022/09/20 08:24:29;;;;;;;4.30;1.60;;;;;;;;;;5113712;27;20465;-71
2022/09/20 08:26:56;;;;;;;3.63;1.43;;;;;;;;;;5117044;27;20549;-71
2022/09/20 08:29:24;;;;;;;11.10;2.73;;;;;;;;;;5121825;27;20538;-71
2022/09/20 08:31:51;;;;;;;7.17;1.30;;;;;;;;;;5128064;27;20456;-71
2022/09/20 08:34:18;;;;;;;6.83;2.17;;;;;;;;;;5114274;27;20459;-71
2022/09/20 08:36:50;;;;;;;4.43;1.30;;;;;;;;;;5114748;27;20458;-72
2022/09/20 08:39:17;;;;;;;4.80;1.33;;;;;;;;;;5114923;27;20462;-71
2022/09/20 08:41:46;;;;;;;4.40;1.53;;;;;;;;;;5117790;27;20513;-70
2022/09/20 08:44:16;;;;;;;5.83;0.90;;;;;;;;;;5112903;27;20462;-73
2022/09/20 08:46:46;;;;;;;4.50;1.53;;;;;;;;;;5113250;27;20572;-73
2022/09/20 08:49:17;;;;;;;5.47;1.23;;;;;;;;;;5125654;27;20485;-72
2022/09/20 08:51:48;;;;;;;7.53;1.90;;;;;;;;;;5113511;27;20458;-72
2022/09/20 08:54:18;;;;;;;5.50;1.40;;;;;;;;;;5124336;27;20466;-74
2022/09/20 08:56:48;;;;;;;7.47;1.40;;;;;;;;;;5122255;27;20460;-74
2022/09/20 08:59:18;;;;;;;8.30;1.40;;;;;;;;;;5130303;27;20540;-74
2022/09/20 09:01:47;;;;;;;9.17;1.50;;;;;;;;;;5133840;27;20562;-73
2022/09/20 09:04:16;;;;;;;7.03;1.60;;;;;;;;;;5123974;27;20465;-73
2022/09/20 09:06:44;;;;;;;3.40;1.73;;;;;;;;;;5120104;27;20468;-73
2022/09/20 09:09:14;;;;;;;4.03;1.10;;;;;;;;;;5134681;27;20453;-73
2022/09/20 09:11:42;;;;;;;9.47;2.23;;;;;;;;;;5130013;27;21246;-72
2022/09/20 09:16:59;;;;;;;5.67;1.57;;;;;;;;;;5115831;27;20455;-73
2022/09/20 09:19:35;;;;;;;4.73;1.10;;;;;;;;;;5124237;27;20465;-74
2022/09/20 09:22:06;;;;;;;6.20;1.27;;;;;;;;;;5117892;27;20492;-73
2022/09/20 09:24:38;;;;;;;5.40;1.77;;;;;;;;;;5127242;27;20487;-73
2022/09/20 09:27:07;;;;;;;8.27;1.30;;;;;;;;;;5122822;27;20855;-73
2022/09/20 09:29:35;;;;;;;5.50;1.70;;;;;;;;;;5131162;27;20477;-73
2022/09/20 09:32:19;;;;;;;6.37;2.10;;;;;;;;;;5115032;27;20467;-72
2022/09/20 09:34:47;;;;;;;4.87;1.43;;;;;;;;;;5118210;27;20569;-72
2022/09/20 09:37:29;;;;;;;3.90;1.13;;;;;;;;;;5121288;27;20584;-73
2022/09/20 09:40:15;;;;;;;5.33;0.93;;;;;;;;;;5116320;27;20604;-73
2022/09/20 09:42:51;;;;;;;5.50;1.70;;;;;;;;;;5115340;27;20473;-73
2022/09/20 09:45:29;;;;;;;9.67;1.80;;;;;;;;;;5113166;27;20519;-72
2022/09/20 09:47:58;;;;;;;3.63;1.47;;;;;;;;;;5129072;27;20696;-72
2022/09/20 09:50:29;;;;;;;5.50;1.37;;;;;;;;;;5115738;27;20470;-72
2022/09/20 09:53:04;;;;;;;6.80;1.47;;;;;;;;;;5122262;27;20461;-73
2022/09/20 10:01:49;;;;;;;8.50;1.10;;;;;;;;;;5121621;27;20470;-71
2022/09/20 10:04:33;;;;;;;5.93;1.67;;;;;;;;;;5125512;27;20949;-71
2022/09/20 10:07:07;;;;;;;10.03;1.57;;;;;;;;;;5118931;27;20466;-73
2022/09/20 10:09:53;;;;;;;5.63;1.10;;;;;;;;;;5119029;27;20478;-72
2022/09/20 10:12:35;;;;;;;6.47;1.10;;;;;;;;;;5118135;27;20507;-73
2022/09/20 10:18:52;;;;;;;8.33;1.83;;;;;;;;;;5032460;28;20951;-73
2022/09/20 10:21:47;;;;;;;3.53;1.10;;;;;;;;;;5047718;28;20832;-73
2022/09/20 10:27:28;;;;;;;5.83;1.07;;;;;;;;;;5016698;28;20891;-74
2022/09/20 10:30:00;;;;;;;7.07;1.23;;;;;;;;;;5126435;27;20857;-71
2022/09/20 10:38:52;;;;;;;7.47;1.30;;;;;;;;;;5125246;27;20441;-72
2022/09/20 10:44:51;;;;;;;4.17;1.10;;;;;;;;;;5125330;27;20731;-73
2022/09/20 10:47:23;;;;;;;5.57;2.10;;;;;;;;;;5113502;27;20511;-72
2022/09/20 10:49:59;;;;;;;4.70;1.00;;;;;;;;;;5114367;27;20928;-72
2022/09/20 10:52:53;;;;;;;8.60;2.17;;;;;;;;;;5121781;27;21033;-72
2022/09/20 10:55:30;;;;;;;3.03;0.97;;;;;;;;;;5118928;27;20463;-73
2022/09/20 10:58:18;;;;;;;8.47;1.43;;;;;;;;;;5122063;27;20458;-72
2022/09/20 11:00:51;;;;;;;5.93;1.20;;;;;;;;;;5117608;27;20578;-72
2022/09/20 11:03:25;;;;;;;3.63;1.30;;;;;;;;;;5114362;27;20458;-71
2022/09/20 11:06:02;;;;;;;4.50;1.10;;;;;;;;;;5120498;27;20560;-71
2022/09/20 11:08:32;;;;;;;6.73;1.50;;;;;;;;;;5116152;27;20462;-71
2022/09/20 11:11:02;;;;;;;8.27;1.40;;;;;;;;;;5118790;27;20510;-72
2022/09/20 11:13:33;;;;;;;7.63;1.60;;;;;;;;;;5130294;27;20478;-72
2022/09/20 11:16:05;;;;;;;7.30;1.10;;;;;;;;;;5121073;27;20501;-71
2022/09/20 11:18:37;;;;;;;6.93;1.87;;;;;;;;;;5122835;27;20519;-73
2022/09/20 11:21:10;;;;;;;4.80;1.43;;;;;;;;;;5114143;27;20494;-73
2022/09/20 11:23:45;;;;;;;4.33;1.03;;;;;;;;;;5120167;27;20911;-73
2022/09/20 11:26:17;;;;;;;3.90;1.20;;;;;;;;;;5121796;27;20466;-72
2022/09/20 11:28:49;;;;;;;5.33;1.23;;;;;;;;;;5118696;27;20471;-72
2022/09/20 11:31:23;;;;;;;8.93;1.50;;;;;;;;;;5128921;27;20475;-71
2022/09/20 11:33:55;;;;;;;3.60;1.00;;;;;;;;;;5118355;27;20927;-72
2022/09/20 11:36:32;;;;;;;3.20;0.83;;;;;;;;;;5123817;27;20537;-71
2022/09/20 11:39:04;;;;;;;4.80;1.50;;;;;;;;;;5125618;27;20486;-71
2022/09/20 11:41:36;;;;;;;2.20;0.87;;;;;;;;;;5120879;27;20474;-72
2022/09/20 11:44:06;;;;;;;3.80;0.90;;;;;;;;;;5117248;27;20469;-71
2022/09/20 11:46:38;;;;;;;4.50;1.77;;;;;;;;;;5124491;27;20525;-72
2022/09/20 11:49:11;;;;;;;5.10;0.93;;;;;;;;;;5118583;27;20484;-71
2022/09/20 11:51:49;;;;;;;3.80;1.00;;;;;;;;;;5119363;27;20461;-71
2022/09/20 11:54:35;;;;;;;7.60;1.50;;;;;;;;;;5121564;27;20461;-71
2022/09/20 11:57:06;;;;;;;7.70;1.40;;;;;;;;;;5117845;27;20925;-71
2022/09/20 11:59:35;;;;;;;4.83;0.97;;;;;;;;;;5115439;27;21078;-72
2022/09/20 12:02:04;;;;;;;3.97;1.40;;;;;;;;;;5117132;27;20487;-69
2022/09/20 12:04:36;;;;;;;5.20;1.20;;;;;;;;;;5124851;27;20469;-70
2022/09/20 12:07:07;;;;;;;4.80;1.37;;;;;;;;;;5116679;27;20455;-70
2022/09/20 12:10:14;;;;;;;5.20;1.20;;;;;;;;;;5114023;27;21072;-70
2022/09/20 12:12:47;;;;;;;3.60;1.10;;;;;;;;;;5124988;27;20484;-73
2022/09/20 12:15:28;;;;;;;4.10;0.77;;;;;;;;;;5124217;27;20462;-70
2022/09/20 12:18:27;;;;;;;7.70;1.60;;;;;;;;;;5119959;27;20466;-72
2022/09/20 12:21:05;;;;;;;5.73;1.10;;;;;;;;;;5123419;27;20486;-72
2022/09/20 12:23:54;;;;;;;3.33;1.00;;;;;;;;;;5122773;27;20454;-72
2022/09/20 12:26:39;;;;;;;2.10;0.90;;;;;;;;;;5120676;27;20546;-71
2022/09/20 12:29:37;;;;;;;4.50;1.27;;;;;;;;;;5114106;27;20443;-71
2022/09/20 12:32:24;;;;;;;8.77;1.20;;;;;;;;;;5114748;27;20561;-71
2022/09/20 12:34:51;;;;;;;7.20;1.60;;;;;;;;;;5122984;27;20454;-71
2022/09/20 12:37:23;;;;;;;9.77;2.00;;;;;;;;;;5134747;27;20463;-71
2022/09/20 12:39:51;;;;;;;4.53;1.17;;;;;;;;;;5117798;27;20493;-70
2022/09/20 12:42:27;;;;;;;8.47;2.00;;;;;;;;;;5128466;27;20538;-69
2022/09/20 12:44:59;;;;;;;7.00;1.57;;;;;;;;;;5127360;27;20461;-71
2022/09/20 12:47:27;;;;;;;5.10;1.13;;;;;;;;;;5119663;27;20459;-70
2022/09/20 12:52:59;;;;;;;4.57;1.03;;;;;;;;;;5120480;27;20574;-73
2022/09/20 12:55:39;;;;;;;4.00;0.80;;;;;;;;;;5118655;27;20474;-70
2022/09/20 12:58:17;;;;;;;4.83;1.53;;;;;;;;;;5124199;27;20946;-70
2022/09/20 13:00:53;;;;;;;4.20;1.03;;;;;;;;;;5115338;27;20530;-71
2022/09/20 13:03:27;;;;;;;8.10;1.20;;;;;;;;;;5113984;27;20458;-71
2022/09/20 13:06:15;;;;;;;3.53;1.53;;;;;;;;;;5115271;27;20474;-70
2022/09/20 13:08:46;;;;;;;4.27;1.20;;;;;;;;;;5130135;27;20458;-71
2022/09/20 13:11:18;;;;;;;2.53;0.67;;;;;;;;;;5121011;27;20541;-70
2022/09/20 13:13:50;;;;;;;2.57;1.00;;;;;;;;;;5133311;27;20737;-71
2022/09/20 13:16:22;;;;;;;2.90;1.00;;;;;;;;;;5135284;27;20442;-71
2022/09/20 13:18:56;;;;;;;4.03;0.90;;;;;;;;;;5134603;27;20449;-70
2022/09/20 13:21:24;;;;;;;3.80;0.90;;;;;;;;;;5114459;27;21011;-71
2022/09/20 13:23:54;;;;;;;3.10;0.73;;;;;;;;;;5136360;27;20630;-70
2022/09/20 13:26:23;;;;;;;4.83;1.30;;;;;;;;;;5123881;27;20520;-70
2022/09/20 13:28:51;;;;;;;4.70;1.20;;;;;;;;;;5125682;27;20450;-70
2022/09/20 13:31:30;;;;;;;3.23;0.80;;;;;;;;;;5117504;27;20489;-71
2022/09/20 13:34:12;;;;;;;10.90;2.00;;;;;;;;;;5113015;27;20545;-72
2022/09/20 13:36:39;;;;;;;4.70;1.40;;;;;;;;;;5113951;27;20465;-71
2022/09/20 13:39:06;;;;;;;3.83;1.20;;;;;;;;;;5113694;27;21099;-70
2022/09/20 13:41:34;;;;;;;4.80;1.20;;;;;;;;;;5113260;27;21010;-71
2022/09/20 13:44:02;;;;;;;4.73;1.40;;;;;;;;;;5112269;27;20439;-70
2022/09/20 13:46:31;;;;;;;4.60;0.80;;;;;;;;;;5112786;27;20505;-70
2022/09/20 13:49:08;;;;;;;6.50;1.20;;;;;;;;;;5115785;27;20535;-72
2022/09/20 13:51:36;;;;;;;8.53;2.00;;;;;;;;;;5119473;27;20872;-72
2022/09/20 13:54:18;;;;;;;6.40;1.30;;;;;;;;;;5114279;27;20518;-71
2022/09/20 13:56:53;;;;;;;7.13;1.47;;;;;;;;;;5113060;27;20447;-71
2022/09/20 13:59:29;;;;;;;2.93;1.00;;;;;;;;;;5112955;27;20446;-70
2022/09/20 14:02:04;;;;;;;9.73;1.00;;;;;;;;;;5115468;27;20487;-70
2022/09/20 14:04:32;;;;;;;3.17;1.13;;;;;;;;;;5115363;27;20469;-70
2022/09/20 14:07:02;;;;;;;4.80;1.00;;;;;;;;;;5118251;27;20473;-70
2022/09/20 14:09:37;;;;;;;4.57;1.40;;;;;;;;;;5111162;27;20451;-70
2022/09/20 14:12:09;;;;;;;5.47;1.33;;;;;;;;;;5112999;27;20854;-69
2022/09/20 14:14:38;;;;;;;8.10;1.67;;;;;;;;;;5112325;27;20538;-71
2022/09/20 14:17:17;;;;;;;9.50;0.97;;;;;;;;;;5121143;27;20872;-68
2022/09/20 14:19:47;;;;;;;6.07;1.10;;;;;;;;;;5110623;27;20534;-69
2022/09/20 14:22:17;;;;;;;9.83;2.73;;;;;;;;;;5111456;27;20486;-70
2022/09/20 14:24:58;;;;;;;5.93;1.27;;;;;;;;;;5113679;27;20449;-70
2022/09/20 14:27:25;;;;;;;5.63;1.23;;;;;;;;;;5113399;27;20538;-69
2022/09/20 14:29:56;;;;;;;5.03;1.50;;;;;;;;;;5112047;27;20590;-69
2022/09/20 14:32:31;;;;;;;5.77;1.20;;;;;;;;;;5121149;27;20472;-72
2022/09/20 14:35:00;;;;;;;14.60;1.93;;;;;;;;;;5125145;27;20508;-72
2022/09/20 14:37:29;;;;;;;3.90;0.97;;;;;;;;;;5122778;27;20539;-72
2022/09/20 14:39:57;;;;;;;4.03;1.20;;;;;;;;;;5115950;27;20565;-72
2022/09/20 14:42:28;;;;;;;4.37;1.00;;;;;;;;;;5114314;27;21148;-71
2022/09/20 14:44:55;;;;;;;4.57;1.10;;;;;;;;;;5120674;27;20455;-71
2022/09/20 14:47:37;;;;;;;4.13;1.33;;;;;;;;;;5122046;27;20811;-70
2022/09/20 14:50:05;;;;;;;2.90;0.90;;;;;;;;;;5119713;27;20474;-72
2022/09/20 14:52:37;;;;;;;3.93;1.23;;;;;;;;;;5117970;27;20434;-73
2022/09/20 14:55:16;;;;;;;4.97;1.27;;;;;;;;;;5117659;27;20451;-72
2022/09/20 14:57:44;;;;;;;6.43;1.23;;;;;;;;;;5122729;27;20477;-73
2022/09/20 15:00:18;;;;;;;7.87;1.17;;;;;;;;;;5121493;27;20600;-72
2022/09/20 15:02:46;;;;;;;7.60;1.50;;;;;;;;;;5117577;27;20568;-72
2022/09/20 15:05:18;;;;;;;4.73;1.83;;;;;;;;;;5121514;27;20457;-72
2022/09/20 15:07:45;;;;;;;2.80;0.90;;;;;;;;;;5114298;27;20451;-72
2022/09/20 15:13:16;;;;;;;6.10;1.20;;;;;;;;;;5119544;27;20465;-72
2022/09/20 15:15:48;;;;;;;2.77;0.70;;;;;;;;;;5114615;27;20454;-72
2022/09/20 15:18:22;;;;;;;5.33;1.40;;;;;;;;;;5123170;27;20462;-72
2022/09/20 15:20:51;;;;;;;4.90;0.90;;;;;;;;;;5115449;27;20466;-71
2022/09/20 15:23:18;;;;;;;4.50;0.80;;;;;;;;;;5122652;27;20463;-71
2022/09/20 15:25:45;;;;;;;5.37;1.00;;;;;;;;;;5111114;27;20920;-70
2022/09/20 15:28:16;;;;;;;3.57;0.90;;;;;;;;;;5121605;27;20457;-71
2022/09/20 15:30:44;;;;;;;4.07;1.00;;;;;;;;;;5114642;27;20498;-71
2022/09/20 15:33:17;;;;;;;4.20;1.10;;;;;;;;;;5122158;27;20548;-70
2022/09/20 15:35:49;;;;;;;15.20;1.47;;;;;;;;;;5124435;28;20458;-70
2022/09/20 15:38:17;;;;;;;1.90;0.90;;;;;;;;;;5114476;27;20466;-70
2022/09/20 15:40:46;;;;;;;5.00;1.37;;;;;;;;;;5114449;27;20459;-71
2022/09/20 15:43:15;;;;;;;5.67;1.17;;;;;;;;;;5127729;27;20442;-71
2022/09/20 15:45:48;;;;;;;3.73;1.50;;;;;;;;;;5112774;27;20458;-69
2022/09/20 15:48:17;;;;;;;4.77;1.40;;;;;;;;;;5114678;27;20463;-70
2022/09/20 15:50:44;;;;;;;3.50;1.37;;;;;;;;;;5124478;27;20469;-70
2022/09/20 15:53:12;;;;;;;2.53;0.93;;;;;;;;;;5121446;27;20820;-70
2022/09/20 15:55:39;;;;;;;3.63;1.10;;;;;;;;;;5124232;27;20599;-70
2022/09/20 15:58:08;;;;;;;2.00;0.70;;;;;;;;;;5120769;27;20546;-70
2022/09/20 16:00:35;;;;;;;3.00;1.00;;;;;;;;;;5116097;27;20919;-69